createdAt,value
2018-08-23T00:00:38.335Z,22.77
2018-08-23T00:03:16.266Z,26.37
2018-08-23T00:05:53.589Z,25.70
2018-08-23T00:08:23.066Z,24.33
2018-08-23T00:10:52.693Z,24.90
2018-08-23T00:13:21.949Z,25.33
2018-08-23T00:15:51.107Z,24.67
2018-08-23T00:18:20.016Z,24.30
2018-08-23T00:20:49.013Z,23.43
2018-08-23T00:23:17.951Z,24.33
2018-08-23T00:25:46.836Z,23.60
2018-08-23T00:28:15.789Z,24.60
2018-08-23T00:33:20.257Z,23.37
2018-08-23T00:35:49.139Z,25.00
2018-08-23T00:38:19.121Z,24.77
2018-08-23T00:40:48.017Z,26.10
2018-08-23T00:43:17.037Z,25.93
2018-08-23T00:45:45.940Z,25.57
2018-08-23T00:48:14.860Z,25.33
2018-08-23T00:50:53.707Z,25.80
2018-08-23T00:53:22.681Z,24.53
2018-08-23T00:56:03.691Z,24.53
2018-08-23T00:58:33.042Z,24.20
2018-08-23T01:01:03.101Z,24.63
2018-08-23T01:03:32.113Z,25.17
2018-08-23T01:06:01.606Z,24.23
2018-08-23T01:08:34.680Z,26.00
2018-08-23T01:11:05.328Z,25.83
2018-08-23T01:13:34.429Z,25.77
2018-08-23T01:16:03.427Z,25.17
2018-08-23T01:18:32.342Z,24.97
2018-08-23T01:21:07.109Z,26.23
2018-08-23T01:23:36.530Z,26.37
2018-08-23T01:26:06.348Z,25.53
2018-08-23T01:28:35.213Z,24.67
2018-08-23T01:31:21.884Z,26.50
2018-08-23T01:33:56.668Z,25.43
2018-08-23T01:36:30.189Z,25.37
2018-08-23T01:38:59.339Z,26.33
2018-08-23T01:41:28.231Z,25.90
2018-08-23T01:43:58.171Z,26.73
2018-08-23T01:46:31.511Z,25.93
2018-08-23T01:49:00.399Z,24.87
2018-08-23T01:51:29.327Z,24.97
2018-08-23T01:53:58.194Z,25.67
2018-08-23T01:56:27.157Z,24.77
2018-08-23T01:58:56.036Z,25.30
2018-08-23T02:01:24.988Z,28.10
2018-08-23T02:03:53.857Z,27.13
2018-08-23T02:06:26.960Z,24.30
2018-08-23T02:08:55.845Z,27.07
2018-08-23T02:11:24.831Z,26.23
2018-08-23T02:13:53.703Z,27.23
2018-08-23T02:16:22.904Z,25.90
2018-08-23T02:18:51.947Z,26.93
2018-08-23T02:21:20.869Z,25.23
2018-08-23T02:23:52.463Z,28.00
2018-08-23T02:26:21.314Z,30.10
2018-08-23T02:28:50.832Z,28.63
2018-08-23T02:31:19.810Z,27.33
2018-08-23T02:33:48.701Z,28.53
2018-08-23T02:36:18.138Z,28.27
2018-08-23T02:38:55.335Z,28.93
2018-08-23T02:41:24.223Z,28.80
2018-08-23T02:43:53.168Z,28.80
2018-08-23T02:46:22.065Z,30.03
2018-08-23T02:48:51.257Z,31.73
2018-08-23T02:51:20.237Z,31.33
2018-08-23T02:53:49.594Z,32.17
2018-08-23T02:56:20.524Z,30.47
2018-08-23T02:59:12.025Z,30.63
2018-08-23T03:01:41.088Z,30.70
2018-08-23T03:04:15.557Z,30.53
2018-08-23T03:06:50.858Z,31.90
2018-08-23T03:09:21.342Z,32.07
2018-08-23T03:11:51.235Z,32.80
2018-08-23T03:14:21.302Z,32.23
2018-08-23T03:17:29.222Z,32.13
2018-08-23T03:20:13.583Z,32.07
2018-08-23T03:22:43.448Z,31.50
2018-08-23T03:25:13.543Z,31.37
2018-08-23T03:27:42.521Z,31.70
2018-08-23T03:30:13.438Z,31.23
2018-08-23T03:32:42.383Z,30.73
2018-08-23T03:35:11.266Z,30.17
2018-08-23T03:37:40.316Z,32.23
2018-08-23T03:40:10.618Z,30.07
2018-08-23T03:42:39.553Z,30.13
2018-08-23T03:45:14.577Z,31.90
2018-08-23T03:47:50.532Z,32.20
2018-08-23T03:50:19.441Z,32.50
2018-08-23T03:52:49.765Z,33.00
2018-08-23T03:55:21.953Z,33.77
2018-08-23T03:57:51.320Z,33.80
2018-08-23T04:00:26.342Z,32.83
2018-08-23T04:02:55.452Z,33.50
2018-08-23T04:05:24.328Z,33.00
2018-08-23T04:07:53.283Z,34.17
2018-08-23T04:10:22.167Z,33.40
2018-08-23T04:12:51.079Z,33.33
2018-08-23T04:15:31.082Z,34.37
2018-08-23T04:18:18.250Z,34.80
2018-08-23T04:20:56.526Z,34.90
2018-08-23T04:23:25.547Z,34.77
2018-08-23T04:25:54.597Z,34.17
2018-08-23T04:28:24.531Z,36.07
2018-08-23T04:30:53.530Z,36.90
2018-08-23T04:33:22.484Z,36.03
2018-08-23T04:35:51.385Z,36.33
2018-08-23T04:38:21.286Z,36.47
2018-08-23T04:40:56.427Z,36.67
2018-08-23T04:43:25.330Z,36.90
2018-08-23T04:45:54.268Z,36.13
2018-08-23T04:48:23.196Z,35.30
2018-08-23T04:50:53.178Z,35.23
2018-08-23T04:53:22.158Z,36.17
2018-08-23T04:55:51.098Z,36.27
2018-08-23T04:58:20.010Z,34.73
2018-08-23T05:00:49.936Z,35.80
2018-08-23T05:03:18.822Z,33.27
2018-08-23T05:05:47.793Z,32.57
2018-08-23T05:08:16.707Z,32.63
2018-08-23T05:10:45.609Z,33.37
2018-08-23T05:13:14.615Z,33.43
2018-08-23T05:15:44.293Z,33.23
2018-08-23T05:18:13.263Z,34.27
2018-08-23T05:20:42.217Z,34.73
2018-08-23T05:23:11.233Z,34.40
2018-08-23T05:25:40.055Z,34.60
2018-08-23T05:28:19.021Z,34.03
2018-08-23T05:30:48.599Z,33.90
2018-08-23T05:33:18.369Z,34.80
2018-08-23T05:35:47.386Z,36.37
2018-08-23T05:38:17.037Z,35.10
2018-08-23T05:40:51.055Z,33.67
2018-08-23T05:43:20.013Z,36.20
2018-08-23T05:45:50.928Z,36.23
2018-08-23T05:48:32.389Z,34.10
2018-08-23T05:51:10.319Z,34.23
2018-08-23T05:53:44.802Z,34.83
2018-08-23T05:56:14.005Z,34.33
2018-08-23T05:58:43.184Z,35.97
2018-08-23T06:01:12.342Z,36.10
2018-08-23T06:03:41.498Z,33.53
2018-08-23T06:06:10.456Z,34.50
2018-08-23T06:08:42.085Z,33.63
2018-08-23T06:11:11.865Z,36.20
2018-08-23T06:13:40.938Z,35.97
2018-08-23T06:16:09.811Z,34.73
2018-08-23T06:18:38.685Z,35.83
2018-08-23T06:21:07.603Z,34.93
2018-08-23T06:24:00.467Z,34.33
2018-08-23T06:26:37.123Z,35.27
2018-08-23T06:29:06.040Z,37.13
2018-08-23T06:31:34.984Z,39.00
2018-08-23T06:34:04.073Z,39.27
2018-08-23T06:36:37.241Z,37.93
2018-08-23T06:39:06.990Z,37.83
2018-08-23T06:41:35.882Z,39.13
2018-08-23T06:44:04.796Z,39.50
2018-08-23T06:46:33.698Z,38.60
2018-08-23T06:49:02.578Z,37.27
2018-08-23T06:51:31.499Z,39.23
2018-08-23T06:54:01.509Z,40.50
2018-08-23T06:56:31.449Z,39.00
2018-08-23T06:59:00.523Z,41.03
2018-08-23T07:01:35.565Z,38.93
2018-08-23T07:04:11.294Z,39.37
2018-08-23T07:06:40.196Z,40.03
2018-08-23T07:09:11.876Z,41.20
2018-08-23T07:11:40.839Z,41.93
2018-08-23T07:14:12.878Z,44.20
2018-08-23T07:16:42.990Z,41.03
2018-08-23T07:19:25.637Z,41.43
2018-08-23T07:21:55.284Z,40.33
2018-08-23T07:24:37.596Z,41.30
2018-08-23T07:27:09.196Z,39.57
2018-08-23T07:29:38.140Z,39.27
2018-08-23T07:32:08.156Z,41.03
2018-08-23T07:34:37.324Z,43.70
2018-08-23T07:37:11.615Z,42.17
2018-08-23T07:39:44.698Z,38.60
2018-08-23T07:42:13.594Z,40.77
2018-08-23T07:44:42.562Z,44.47
2018-08-23T07:47:11.637Z,41.93
2018-08-23T07:49:40.635Z,40.13
2018-08-23T07:52:09.629Z,41.10
2018-08-23T07:54:38.653Z,44.00
2018-08-23T07:57:07.799Z,43.77
2018-08-23T07:59:36.818Z,42.13
2018-08-23T08:02:07.503Z,42.27
2018-08-23T08:04:36.414Z,44.17
2018-08-23T08:07:08.546Z,42.67
2018-08-23T08:09:37.521Z,41.70
2018-08-23T08:12:10.626Z,42.60
2018-08-23T08:14:39.626Z,38.83
2018-08-23T08:17:13.700Z,43.43
2018-08-23T08:19:57.978Z,37.40
2018-08-23T08:22:26.963Z,36.63
2018-08-23T08:25:05.809Z,36.57
2018-08-23T08:27:34.709Z,41.50
2018-08-23T08:30:03.620Z,39.97
2018-08-23T08:32:32.505Z,37.73
2018-08-23T08:35:01.397Z,41.97
2018-08-23T08:37:30.573Z,39.57
2018-08-23T08:39:59.581Z,38.33
2018-08-23T08:42:32.345Z,34.73
2018-08-23T08:45:06.596Z,36.57
2018-08-23T08:47:35.481Z,34.30
2018-08-23T08:50:04.955Z,36.30
2018-08-23T08:52:33.875Z,35.60
2018-08-23T08:55:02.844Z,35.00
2018-08-23T08:57:33.171Z,32.20
2018-08-23T09:00:02.251Z,31.80
2018-08-23T09:02:32.948Z,35.60
2018-08-23T09:05:02.577Z,32.17
2018-08-23T09:07:32.666Z,32.73
2018-08-23T09:10:01.658Z,32.17
2018-08-23T09:12:31.313Z,35.50
2018-08-23T09:15:00.272Z,33.57
2018-08-23T09:17:39.926Z,30.10
2018-08-23T09:20:14.365Z,27.63
2018-08-23T09:22:49.947Z,26.03
2018-08-23T09:25:23.582Z,27.17
2018-08-23T09:27:52.721Z,27.87
2018-08-23T09:30:25.982Z,23.50
2018-08-23T09:32:55.104Z,26.87
2018-08-23T09:35:29.170Z,27.20
2018-08-23T09:38:00.336Z,25.17
2018-08-23T09:40:29.785Z,22.40
2018-08-23T09:43:02.257Z,21.20
2018-08-23T09:45:32.188Z,18.80
2018-08-23T09:48:01.051Z,20.93
2018-08-23T09:50:29.998Z,18.17
2018-08-23T09:52:58.962Z,20.03
2018-08-23T09:55:30.150Z,18.13
2018-08-23T09:57:59.392Z,15.27
2018-08-23T10:00:33.658Z,13.57
2018-08-23T10:03:07.903Z,12.43
2018-08-23T10:05:48.122Z,12.23
2018-08-23T10:08:22.537Z,12.60
2018-08-23T10:10:56.827Z,13.13
2018-08-23T10:13:31.014Z,15.23
2018-08-23T10:16:05.075Z,17.37
2018-08-23T10:18:39.159Z,14.00
2018-08-23T10:21:08.148Z,15.87
2018-08-23T10:23:37.108Z,13.53
2018-08-23T10:26:16.047Z,11.47
2018-08-23T10:28:50.033Z,13.57
2018-08-23T10:31:18.933Z,11.63
2018-08-23T10:33:47.824Z,14.50
2018-08-23T10:36:16.730Z,12.67
2018-08-23T10:38:45.691Z,12.37
2018-08-23T10:41:14.762Z,13.43
2018-08-23T10:43:45.565Z,13.00
2018-08-23T10:46:14.555Z,11.93
2018-08-23T10:48:43.467Z,14.00
2018-08-23T10:51:12.416Z,13.97
2018-08-23T10:53:41.301Z,14.00
2018-08-23T10:56:11.230Z,14.17
2018-08-23T10:58:40.116Z,13.73
2018-08-23T11:01:09.088Z,12.23
2018-08-23T11:03:38.005Z,13.43
2018-08-23T11:06:06.889Z,12.20
2018-08-23T11:08:37.343Z,12.73
2018-08-23T11:11:11.636Z,11.97
2018-08-23T11:13:47.221Z,13.37
2018-08-23T11:16:21.380Z,13.90
2018-08-23T11:18:55.849Z,19.10
2018-08-23T11:21:24.766Z,17.87
2018-08-23T11:23:53.749Z,18.17
2018-08-23T11:26:24.010Z,16.93
2018-08-23T11:28:52.926Z,16.80
2018-08-23T11:31:27.193Z,20.13
2018-08-23T11:33:56.061Z,17.30
2018-08-23T11:36:24.967Z,17.30
2018-08-23T11:38:53.896Z,19.60
2018-08-23T11:41:22.790Z,17.83
2018-08-23T11:43:51.647Z,18.63
2018-08-23T11:46:21.723Z,20.20
2018-08-23T11:48:50.739Z,20.50
2018-08-23T11:51:20.017Z,20.00
2018-08-23T11:53:48.965Z,20.87
2018-08-23T11:56:17.855Z,26.73
2018-08-23T11:58:46.817Z,19.63
2018-08-23T12:01:16.740Z,24.80
2018-08-23T12:03:46.118Z,27.87
2018-08-23T12:06:16.184Z,24.27
2018-08-23T12:08:45.252Z,26.53
2018-08-23T12:11:14.235Z,26.10
2018-08-23T12:13:45.588Z,25.50
2018-08-23T12:16:14.541Z,22.10
2018-08-23T12:18:43.521Z,21.10
2018-08-23T12:21:12.400Z,25.07
2018-08-23T12:23:41.321Z,24.90
2018-08-23T12:26:10.301Z,24.93
2018-08-23T12:28:44.561Z,25.27
2018-08-23T12:31:13.567Z,23.43
2018-08-23T12:33:42.510Z,21.60
2018-08-23T12:36:11.461Z,21.43
2018-08-23T12:38:45.515Z,23.90
2018-08-23T12:41:19.760Z,22.13
2018-08-23T12:43:50.035Z,19.23
2018-08-23T12:46:19.037Z,21.47
2018-08-23T12:48:48.073Z,19.07
2018-08-23T12:51:17.027Z,20.83
2018-08-23T12:53:45.903Z,22.07
2018-08-23T12:56:14.859Z,20.70
2018-08-23T12:58:43.752Z,20.30
2018-08-23T13:01:13.750Z,19.57
2018-08-23T13:03:42.699Z,19.53
2018-08-23T13:06:11.653Z,18.63
2018-08-23T13:08:40.523Z,22.13
2018-08-23T13:11:09.579Z,21.37
2018-08-23T13:13:38.442Z,16.63
2018-08-23T13:16:07.357Z,17.87
2018-08-23T13:18:36.279Z,15.37
2018-08-23T13:21:05.430Z,15.20
2018-08-23T13:23:34.330Z,19.83
2018-08-23T13:26:03.224Z,16.83
2018-08-23T13:28:32.145Z,15.97
2018-08-23T13:31:01.037Z,18.50
2018-08-23T13:33:30.027Z,13.23
2018-08-23T13:35:58.925Z,16.60
2018-08-23T13:38:27.818Z,16.37
2018-08-23T13:40:56.715Z,14.47
2018-08-23T13:43:25.649Z,13.93
2018-08-23T13:45:54.534Z,12.03
2018-08-23T13:48:23.477Z,13.60
2018-08-23T13:50:52.321Z,12.80
2018-08-23T13:53:21.219Z,14.10
2018-08-23T13:55:50.160Z,13.87
2018-08-23T13:58:19.103Z,13.23
2018-08-23T14:00:48.209Z,12.10
2018-08-23T14:03:17.165Z,13.30
2018-08-23T14:05:46.097Z,13.03
2018-08-23T14:08:15.053Z,15.33
2018-08-23T14:10:43.942Z,11.83
2018-08-23T14:13:12.936Z,13.33
2018-08-23T14:15:47.041Z,11.90
2018-08-23T14:18:15.977Z,14.10
2018-08-23T14:20:44.882Z,14.10
2018-08-23T14:23:14.836Z,15.57
2018-08-23T14:25:43.771Z,12.97
2018-08-23T14:28:12.671Z,10.70
2018-08-23T14:30:41.615Z,10.93
2018-08-23T14:33:10.663Z,13.67
2018-08-23T14:35:39.477Z,13.97
2018-08-23T14:38:08.374Z,13.83
2018-08-23T14:40:37.312Z,16.10
2018-08-23T14:43:06.245Z,14.93
2018-08-23T14:45:35.180Z,16.17
2018-08-23T14:48:09.426Z,15.23
2018-08-23T14:50:38.352Z,14.83
2018-08-23T14:53:07.440Z,15.93
2018-08-23T14:55:41.733Z,15.63
2018-08-23T14:58:11.300Z,13.43
2018-08-23T15:00:40.186Z,14.63
2018-08-23T15:03:09.161Z,13.27
2018-08-23T15:05:38.136Z,12.53
2018-08-23T15:08:07.047Z,14.27
2018-08-23T15:10:35.996Z,12.33
2018-08-23T15:13:04.917Z,10.20
2018-08-23T15:15:39.115Z,11.57
2018-08-23T15:18:08.007Z,10.87
2018-08-23T15:20:37.023Z,9.03
2018-08-23T15:23:06.297Z,9.50
2018-08-23T15:25:36.260Z,9.47
2018-08-23T15:28:05.600Z,10.03
2018-08-23T15:30:34.522Z,9.30
2018-08-23T15:33:03.470Z,8.70
2018-08-23T15:35:32.383Z,9.17
2018-08-23T15:38:01.383Z,8.80
2018-08-23T15:40:30.270Z,9.10
2018-08-23T15:42:59.188Z,8.20
2018-08-23T15:45:28.100Z,7.33
2018-08-23T15:47:57.065Z,7.60
2018-08-23T15:50:26.412Z,8.53
2018-08-23T15:52:55.962Z,8.97
2018-08-23T15:55:25.310Z,10.00
2018-08-23T15:57:54.321Z,8.67
2018-08-23T16:00:23.492Z,8.37
2018-08-23T16:02:52.354Z,8.70
2018-08-23T16:05:21.330Z,9.70
2018-08-23T16:07:50.251Z,9.93
2018-08-23T16:10:19.265Z,8.93
2018-08-23T16:12:48.100Z,10.03
2018-08-23T16:15:21.632Z,8.43
2018-08-23T16:17:55.834Z,11.47
2018-08-23T16:20:30.050Z,9.43
2018-08-23T16:22:59.077Z,9.50
2018-08-23T16:25:27.928Z,11.00
2018-08-23T16:27:56.848Z,10.27
2018-08-23T16:30:25.764Z,11.50
2018-08-23T16:32:54.642Z,10.93
2018-08-23T16:35:23.581Z,11.53
2018-08-23T16:37:52.473Z,12.13
2018-08-23T16:40:26.605Z,11.23
2018-08-23T16:42:55.493Z,10.33
2018-08-23T16:45:24.370Z,10.60
2018-08-23T16:47:53.264Z,8.47
2018-08-23T16:50:22.262Z,9.37
2018-08-23T16:52:51.304Z,8.07
2018-08-23T16:55:20.248Z,9.20
2018-08-23T16:57:49.157Z,8.93
2018-08-23T17:00:18.059Z,8.17
2018-08-23T17:02:47.130Z,7.93
2018-08-23T17:05:16.005Z,7.73
2018-08-23T17:07:44.963Z,8.57
2018-08-23T17:10:14.047Z,9.13
2018-08-23T17:12:43.894Z,9.80
2018-08-23T17:15:14.695Z,8.23
2018-08-23T17:17:52.879Z,8.10
2018-08-23T17:20:21.778Z,8.97
2018-08-23T17:22:50.755Z,8.07
2018-08-23T17:25:19.775Z,7.80
2018-08-23T17:27:48.567Z,8.30
2018-08-23T17:30:17.490Z,8.07
2018-08-23T17:32:46.385Z,7.47
2018-08-23T17:35:15.301Z,6.80
2018-08-23T17:37:44.379Z,8.60
2018-08-23T17:40:13.274Z,8.03
2018-08-23T17:42:44.214Z,6.57
2018-08-23T17:45:14.443Z,6.70
2018-08-23T17:47:43.303Z,6.97
2018-08-23T17:50:12.197Z,7.77
2018-08-23T17:52:41.079Z,6.27
2018-08-23T17:55:09.983Z,6.93
2018-08-23T17:57:38.900Z,5.60
2018-08-23T18:00:07.918Z,6.20
2018-08-23T18:02:36.855Z,6.60
2018-08-23T18:05:05.806Z,6.40
2018-08-23T18:07:35.522Z,5.97
2018-08-23T18:10:04.498Z,5.20
2018-08-23T18:12:34.454Z,5.73
2018-08-23T18:15:03.486Z,5.77
2018-08-23T18:17:32.406Z,5.60
2018-08-23T18:20:01.391Z,5.27
2018-08-23T18:22:30.503Z,5.20
2018-08-23T18:24:59.466Z,4.90
2018-08-23T18:27:28.375Z,5.50
2018-08-23T18:29:57.443Z,5.40
2018-08-23T18:32:26.588Z,5.90
2018-08-23T18:34:55.712Z,6.07
2018-08-23T18:37:25.603Z,5.67
2018-08-23T18:39:54.567Z,5.53
2018-08-23T18:42:23.537Z,5.03
2018-08-23T18:44:52.473Z,5.40
2018-08-23T18:47:21.397Z,5.83
2018-08-23T18:49:51.616Z,5.10
2018-08-23T18:52:21.658Z,5.07
2018-08-23T18:54:51.619Z,4.77
2018-08-23T18:57:20.599Z,4.80
2018-08-23T18:59:50.628Z,4.57
2018-08-23T19:02:19.595Z,4.77
2018-08-23T19:04:48.629Z,4.47
2018-08-23T19:07:22.881Z,4.57
2018-08-23T19:09:56.026Z,4.43
2018-08-23T19:12:24.897Z,4.20
2018-08-23T19:14:53.819Z,4.20
2018-08-23T19:17:27.949Z,4.50
2018-08-23T19:19:57.201Z,4.47
2018-08-23T19:22:27.087Z,4.43
2018-08-23T19:24:56.050Z,4.40
2018-08-23T19:27:24.991Z,4.43
2018-08-23T19:29:53.899Z,4.77
2018-08-23T19:32:22.806Z,4.43
2018-08-23T19:34:51.779Z,4.67
2018-08-23T19:37:20.733Z,4.00
2018-08-23T19:39:49.630Z,4.20
2018-08-23T19:42:18.630Z,4.00
2018-08-23T19:44:52.582Z,4.10
2018-08-23T19:47:26.808Z,3.97
2018-08-23T19:49:57.866Z,4.13
2018-08-23T19:52:27.911Z,3.70
2018-08-23T19:54:56.874Z,3.93
2018-08-23T19:57:25.871Z,4.40
2018-08-23T19:59:54.755Z,3.87
2018-08-23T20:02:23.711Z,3.67
2018-08-23T20:04:52.597Z,3.37
2018-08-23T20:07:21.491Z,3.73
2018-08-23T20:09:50.359Z,3.70
2018-08-23T20:12:20.675Z,3.40
2018-08-23T20:14:49.681Z,3.43
2018-08-23T20:17:18.923Z,3.37
2018-08-23T20:19:48.228Z,3.53
2018-08-23T20:22:17.147Z,3.00
2018-08-23T20:24:46.061Z,2.73
2018-08-23T20:27:14.940Z,3.00
2018-08-23T20:29:43.817Z,2.80
2018-08-23T20:32:12.965Z,3.33
2018-08-23T20:34:41.809Z,3.27
2018-08-23T20:37:10.707Z,2.83
2018-08-23T20:39:38.673Z,2.63
2018-08-23T20:42:07.420Z,2.67
2018-08-23T20:44:36.306Z,2.73
2018-08-23T20:47:05.289Z,2.20
2018-08-23T20:49:34.138Z,2.60
2018-08-23T20:52:04.172Z,2.70
2018-08-23T20:54:33.066Z,2.40
2018-08-23T20:57:01.915Z,2.47
2018-08-23T20:59:30.815Z,2.43
2018-08-23T21:01:59.740Z,2.30
2018-08-23T21:04:28.737Z,2.33
2018-08-23T21:06:57.587Z,2.77
2018-08-23T21:09:26.535Z,2.63
2018-08-23T21:11:55.509Z,2.70
2018-08-23T21:14:24.416Z,2.40
2018-08-23T21:16:53.279Z,2.70
2018-08-23T21:19:22.193Z,2.60
2018-08-23T21:21:51.124Z,2.07
2018-08-23T21:24:20.009Z,2.50
2018-08-23T21:26:48.901Z,2.67
2018-08-23T21:29:18.286Z,2.57
2018-08-23T21:31:47.277Z,3.00
2018-08-23T21:34:16.189Z,2.50
2018-08-23T21:36:45.031Z,2.77
2018-08-23T21:39:13.933Z,2.47
2018-08-23T21:41:42.895Z,2.47
2018-08-23T21:44:11.812Z,2.47
2018-08-23T21:46:40.761Z,2.47
2018-08-23T21:49:09.691Z,2.40
2018-08-23T21:51:38.573Z,2.60
2018-08-23T21:54:07.516Z,2.43
2018-08-23T21:56:36.383Z,2.70
2018-08-23T21:59:05.292Z,2.50
2018-08-23T22:01:34.176Z,2.50
2018-08-23T22:04:03.307Z,2.10
2018-08-23T22:06:32.191Z,2.20
2018-08-23T22:09:01.100Z,1.90
2018-08-23T22:11:30.013Z,2.13
2018-08-23T22:13:58.877Z,2.10
2018-08-23T22:16:27.761Z,2.10
2018-08-23T22:18:56.658Z,2.20
2018-08-23T22:21:25.526Z,2.37
2018-08-23T22:23:54.465Z,2.10
2018-08-23T22:26:23.417Z,2.00
2018-08-23T22:28:52.284Z,1.90
2018-08-23T22:31:21.165Z,1.97
2018-08-23T22:33:50.302Z,1.90
2018-08-23T22:36:19.502Z,2.00
2018-08-23T22:38:48.731Z,2.00
2018-08-23T22:41:17.833Z,2.13
2018-08-23T22:43:47.727Z,1.80
2018-08-23T22:46:16.631Z,1.97
2018-08-23T22:48:45.516Z,2.00
2018-08-23T22:51:14.461Z,2.00
2018-08-23T22:53:43.451Z,2.20
2018-08-23T22:56:12.304Z,1.93
2018-08-23T22:58:41.197Z,1.80
2018-08-23T23:01:10.098Z,1.63
2018-08-23T23:03:44.215Z,2.00
2018-08-23T23:06:13.085Z,1.80
2018-08-23T23:08:41.927Z,1.57
2018-08-23T23:11:10.838Z,1.73
2018-08-23T23:13:39.711Z,1.60
2018-08-23T23:16:08.633Z,1.70
2018-08-23T23:18:37.465Z,1.70
2018-08-23T23:21:06.339Z,1.53
2018-08-23T23:23:35.251Z,1.53
2018-08-23T23:26:04.159Z,1.50
2018-08-23T23:28:33.082Z,1.83
2018-08-23T23:31:01.986Z,1.97
2018-08-23T23:33:30.949Z,2.67
2018-08-23T23:35:59.878Z,2.80
2018-08-23T23:38:28.819Z,2.97
2018-08-23T23:40:57.748Z,3.30
2018-08-23T23:54:52.938Z,5.80
2018-08-23T23:57:21.869Z,6.90
2018-08-23T23:59:50.760Z,6.93
